createdAt,value
2022-08-28T00:00:30.585Z,72.08
2022-08-28T00:02:59.845Z,72.13
2022-08-28T00:05:31.935Z,72.11
2022-08-28T00:08:00.890Z,72.00
2022-08-28T00:10:30.305Z,71.85
2022-08-28T00:12:58.286Z,72.24
2022-08-28T00:15:28.980Z,71.99
2022-08-28T00:17:56.621Z,72.28
2022-08-28T00:20:29.763Z,71.71
2022-08-28T00:22:58.313Z,72.14
2022-08-28T00:25:28.826Z,72.44
2022-08-28T00:27:58.376Z,72.27
2022-08-28T00:30:28.344Z,72.18
2022-08-28T00:32:58.406Z,72.84
2022-08-28T00:35:27.648Z,72.35
2022-08-28T00:37:57.471Z,72.13
2022-08-28T00:40:28.600Z,72.65
2022-08-28T00:43:01.369Z,72.36
2022-08-28T00:45:29.886Z,72.73
2022-08-28T00:47:57.438Z,71.91
2022-08-28T00:50:51.367Z,72.31
2022-08-28T00:53:19.784Z,72.23
2022-08-28T00:55:47.935Z,72.50
2022-08-28T00:58:16.111Z,72.50
2022-08-28T01:00:44.178Z,72.41
2022-08-28T01:03:12.067Z,72.74
2022-08-28T01:05:43.589Z,72.37
2022-08-28T01:08:11.408Z,72.90
2022-08-28T01:10:41.569Z,72.77
2022-08-28T01:13:09.355Z,72.85
2022-08-28T01:15:39.363Z,72.99
2022-08-28T01:18:10.094Z,73.22
2022-08-28T01:20:44.739Z,72.96
2022-08-28T01:23:21.366Z,73.21
2022-08-28T01:25:50.283Z,72.82
2022-08-28T01:28:18.598Z,72.73
2022-08-28T01:30:48.542Z,72.57
2022-08-28T01:33:16.594Z,72.95
2022-08-28T01:35:48.464Z,72.90
2022-08-28T01:38:20.016Z,72.79
2022-08-28T01:40:54.226Z,73.40
2022-08-28T01:43:26.182Z,72.67
2022-08-28T01:46:00.076Z,73.16
2022-08-28T01:48:28.074Z,72.97
2022-08-28T01:50:56.265Z,72.38
2022-08-28T01:53:26.327Z,72.54
2022-08-28T01:56:04.745Z,72.58
2022-08-28T01:58:37.873Z,72.58
2022-08-28T02:01:09.631Z,72.34
2022-08-28T02:03:37.550Z,72.48
2022-08-28T02:06:05.662Z,72.23
2022-08-28T02:08:33.301Z,72.13
2022-08-28T02:11:02.202Z,72.34
2022-08-28T02:13:29.783Z,72.23
2022-08-28T02:15:57.996Z,72.44
2022-08-28T02:18:25.563Z,72.34
2022-08-28T02:20:53.128Z,72.70
2022-08-28T02:23:20.722Z,72.37
2022-08-28T02:25:49.866Z,72.44
2022-08-28T02:28:19.878Z,72.62
2022-08-28T02:30:47.495Z,72.27
2022-08-28T02:33:16.145Z,73.15
2022-08-28T02:35:44.356Z,72.78
2022-08-28T02:38:12.159Z,72.64
2022-08-28T02:40:41.232Z,72.63
2022-08-28T02:43:08.868Z,73.24
2022-08-28T02:45:37.757Z,72.89
2022-08-28T02:48:05.784Z,72.89
2022-08-28T02:50:43.792Z,73.24
2022-08-28T02:53:12.552Z,72.99
2022-08-28T02:55:40.472Z,72.76
2022-08-28T02:58:09.559Z,72.94
2022-08-28T03:00:38.511Z,72.99
2022-08-28T03:03:06.253Z,72.93
2022-08-28T03:05:35.197Z,72.57
2022-08-28T03:08:02.928Z,72.72
2022-08-28T03:10:30.457Z,73.36
2022-08-28T03:12:58.115Z,72.87
2022-08-28T03:15:25.643Z,73.05
2022-08-28T03:17:54.606Z,72.98
2022-08-28T03:20:22.326Z,72.96
2022-08-28T03:23:16.075Z,72.89
2022-08-28T03:25:43.714Z,73.00
2022-08-28T03:28:11.621Z,73.81
2022-08-28T03:30:39.703Z,73.19
2022-08-28T03:33:08.590Z,73.42
2022-08-28T03:35:37.636Z,73.97
2022-08-28T03:38:05.580Z,73.52
2022-08-28T03:40:33.412Z,73.58
2022-08-28T03:43:01.858Z,73.36
2022-08-28T03:45:29.476Z,73.53
2022-08-28T03:47:57.376Z,73.40
2022-08-28T03:50:26.729Z,73.34
2022-08-28T03:52:56.480Z,73.13
2022-08-28T03:55:26.873Z,73.60
2022-08-28T03:57:54.930Z,72.98
2022-08-28T04:00:22.756Z,72.89
2022-08-28T04:02:50.512Z,73.35
2022-08-28T04:05:18.592Z,72.54
2022-08-28T04:07:47.490Z,72.55
2022-08-28T04:10:15.942Z,72.35
2022-08-28T04:12:43.653Z,72.68
2022-08-28T04:15:12.709Z,72.99
2022-08-28T04:17:41.175Z,72.97
2022-08-28T04:20:10.915Z,72.77
2022-08-28T04:22:38.959Z,72.73
2022-08-28T04:25:09.180Z,72.78
2022-08-28T04:27:36.965Z,72.96
2022-08-28T04:30:54.581Z,72.57
2022-08-28T04:37:09.534Z,73.32
2022-08-28T04:40:11.428Z,73.11
2022-08-28T04:43:22.737Z,73.02
2022-08-28T04:46:16.042Z,72.44
2022-08-28T04:56:23.017Z,72.80
2022-08-28T04:59:29.582Z,72.62
2022-08-28T05:02:53.349Z,72.41
2022-08-28T05:09:25.300Z,72.27
2022-08-28T05:12:26.088Z,72.52
2022-08-28T05:19:12.414Z,72.22
2022-08-28T05:22:28.991Z,72.17
2022-08-28T05:25:01.489Z,71.90
2022-08-28T05:32:22.384Z,71.98
2022-08-28T05:39:00.066Z,71.96
2022-08-28T05:42:05.607Z,71.58
2022-08-28T05:45:03.283Z,71.18
2022-08-28T05:48:02.708Z,71.31
2022-08-28T05:51:09.992Z,71.37
2022-08-28T05:54:19.072Z,71.48
2022-08-28T05:57:39.918Z,71.17
2022-08-28T06:01:09.035Z,71.35
2022-08-28T06:04:27.535Z,70.85
2022-08-28T06:07:04.687Z,70.99
2022-08-28T06:10:42.234Z,71.03
2022-08-28T06:13:19.094Z,70.64
2022-08-28T06:16:59.754Z,70.37
2022-08-28T06:23:25.716Z,70.49
2022-08-28T06:26:46.359Z,70.11
2022-08-28T06:33:01.885Z,69.67
2022-08-28T06:36:00.174Z,69.53
2022-08-28T06:38:54.454Z,69.08
2022-08-28T06:41:57.318Z,69.50
2022-08-28T06:45:10.580Z,69.32
2022-08-28T06:51:11.243Z,68.95
2022-08-28T06:53:42.929Z,68.23
2022-08-28T06:56:13.729Z,67.26
2022-08-28T06:58:56.926Z,66.73
2022-08-28T07:01:29.381Z,67.10
2022-08-28T07:04:00.245Z,66.67
2022-08-28T07:06:31.333Z,65.76
2022-08-28T07:09:00.743Z,64.26
2022-08-28T07:11:31.680Z,65.18
2022-08-28T07:14:03.441Z,64.71
2022-08-28T07:16:34.040Z,63.38
2022-08-28T07:19:05.462Z,62.57
2022-08-28T07:21:38.653Z,60.40
2022-08-28T07:24:10.921Z,59.87
2022-08-28T07:26:41.928Z,57.76
2022-08-28T07:29:11.548Z,57.09
2022-08-28T07:31:42.209Z,59.77
2022-08-28T07:34:11.958Z,59.84
2022-08-28T07:36:41.385Z,60.22
2022-08-28T07:39:16.280Z,57.22
2022-08-28T07:41:45.216Z,58.59
2022-08-28T07:44:33.954Z,56.26
2022-08-28T07:47:06.173Z,55.51
2022-08-28T07:49:38.305Z,54.45
2022-08-28T07:52:08.019Z,52.66
2022-08-28T07:54:40.891Z,53.73
2022-08-28T07:57:11.715Z,53.57
2022-08-28T07:59:42.187Z,56.91
2022-08-28T08:02:11.924Z,55.25
2022-08-28T08:04:41.632Z,56.79
2022-08-28T08:07:13.137Z,56.22
2022-08-28T08:09:46.755Z,57.24
2022-08-28T08:12:16.241Z,56.08
2022-08-28T08:14:45.855Z,57.30
2022-08-28T08:17:14.764Z,54.81
2022-08-28T08:19:42.536Z,55.57
2022-08-28T08:22:12.563Z,53.94
2022-08-28T08:24:43.169Z,55.80
2022-08-28T08:27:14.175Z,56.94
2022-08-28T08:29:43.886Z,52.95
2022-08-28T08:32:13.834Z,52.56
2022-08-28T08:34:46.111Z,53.99
2022-08-28T08:37:14.603Z,52.22
2022-08-28T08:39:45.633Z,52.30
2022-08-28T08:42:24.440Z,49.48
2022-08-28T08:44:55.190Z,48.25
2022-08-28T08:47:30.172Z,46.33
2022-08-28T08:50:01.297Z,46.76
2022-08-28T08:52:36.018Z,43.28
2022-08-28T08:55:31.999Z,46.45
2022-08-28T08:58:06.028Z,42.94
2022-08-28T09:00:38.734Z,45.05
2022-08-28T09:03:10.839Z,42.32
2022-08-28T09:05:50.552Z,41.60
2022-08-28T09:12:58.702Z,43.42
2022-08-28T09:16:56.330Z,42.89
2022-08-28T09:20:12.656Z,43.92
2022-08-28T09:23:53.554Z,48.53
2022-08-28T09:27:02.071Z,46.37
2022-08-28T09:30:22.895Z,49.30
2022-08-28T09:39:56.442Z,50.58
2022-08-28T09:42:42.556Z,48.82
2022-08-28T09:45:18.465Z,50.06
2022-08-28T09:55:40.663Z,51.10
2022-08-28T09:59:14.823Z,51.61
2022-08-28T10:03:10.622Z,51.85
2022-08-28T10:09:00.808Z,50.93
2022-08-28T10:12:03.177Z,52.22
2022-08-28T10:15:14.449Z,50.36
2022-08-28T10:18:20.287Z,50.49
2022-08-28T10:21:44.984Z,50.76
2022-08-28T10:25:45.804Z,52.41
2022-08-28T10:31:55.897Z,52.95
2022-08-28T10:34:40.961Z,53.63
2022-08-28T10:37:19.990Z,53.74
2022-08-28T10:39:54.454Z,54.47
2022-08-28T10:42:35.813Z,54.33
2022-08-28T10:45:08.594Z,53.28
2022-08-28T10:47:40.679Z,54.06
2022-08-28T10:50:15.443Z,55.31
2022-08-28T10:52:48.976Z,55.57
2022-08-28T10:55:21.692Z,54.51
2022-08-28T10:57:57.521Z,55.55
2022-08-28T11:00:27.355Z,55.94
2022-08-28T11:02:59.166Z,55.60
2022-08-28T11:05:30.570Z,56.28
2022-08-28T11:08:01.773Z,56.23
2022-08-28T11:10:46.379Z,55.46
2022-08-28T11:13:45.811Z,55.66
2022-08-28T11:16:19.871Z,56.25
2022-08-28T11:21:37.855Z,56.36
2022-08-28T11:24:09.989Z,56.68
2022-08-28T11:26:47.633Z,57.14
2022-08-28T11:29:48.718Z,57.19
2022-08-28T11:32:46.813Z,57.34
2022-08-28T11:35:50.057Z,57.23
2022-08-28T11:38:55.353Z,57.74
2022-08-28T11:41:26.572Z,57.90
2022-08-28T11:44:26.881Z,57.62
2022-08-28T11:47:14.742Z,56.98
2022-08-28T11:49:46.002Z,57.42
2022-08-28T11:52:33.926Z,56.62
2022-08-28T11:55:14.468Z,56.86
2022-08-28T12:00:34.837Z,56.32
2022-08-28T12:03:14.708Z,57.16
2022-08-28T12:05:52.726Z,57.39
2022-08-28T12:08:58.695Z,57.91
2022-08-28T12:12:12.206Z,57.73
2022-08-28T12:15:23.449Z,56.87
2022-08-28T12:18:00.520Z,56.87
2022-08-28T12:20:40.206Z,56.48
2022-08-28T12:23:39.122Z,56.82
2022-08-28T12:26:13.963Z,56.74
2022-08-28T12:29:03.420Z,56.78
2022-08-28T12:32:15.280Z,56.94
2022-08-28T12:35:19.230Z,56.74
2022-08-28T12:38:27.764Z,56.77
2022-08-28T12:44:31.968Z,56.24
2022-08-28T12:50:37.251Z,56.10
2022-08-28T12:53:52.832Z,56.87
2022-08-28T12:56:22.590Z,57.03
2022-08-28T12:58:50.888Z,57.39
2022-08-28T13:01:29.342Z,57.27
2022-08-28T13:04:00.176Z,57.34
2022-08-28T13:06:31.575Z,57.83
2022-08-28T13:09:02.088Z,57.51
2022-08-28T13:11:34.935Z,57.55
2022-08-28T13:14:04.324Z,57.49
2022-08-28T13:16:39.403Z,57.45
2022-08-28T13:19:29.212Z,57.27
2022-08-28T13:22:01.774Z,57.60
2022-08-28T13:24:50.326Z,58.06
2022-08-28T13:27:25.300Z,57.63
2022-08-28T13:29:59.766Z,57.72
2022-08-28T13:32:30.801Z,58.47
2022-08-28T13:35:13.594Z,58.23
2022-08-28T13:37:44.475Z,58.09
2022-08-28T13:40:30.202Z,58.01
2022-08-28T13:43:06.951Z,58.24
2022-08-28T13:45:42.849Z,58.65
2022-08-28T13:48:11.535Z,59.07
2022-08-28T13:50:41.654Z,58.87
2022-08-28T13:53:09.291Z,58.72
2022-08-28T13:55:36.871Z,58.06
2022-08-28T13:58:05.792Z,58.08
2022-08-28T14:00:37.083Z,57.91
2022-08-28T14:03:22.067Z,57.89
2022-08-28T14:05:49.568Z,58.28
2022-08-28T14:08:17.120Z,58.31
2022-08-28T14:10:44.657Z,58.40
2022-08-28T14:13:14.294Z,58.49
2022-08-28T14:15:42.133Z,57.96
2022-08-28T14:18:09.646Z,58.16
2022-08-28T14:20:39.184Z,57.93
2022-08-28T14:23:06.874Z,57.89
2022-08-28T14:25:39.069Z,57.91
2022-08-28T14:28:07.010Z,58.09
2022-08-28T14:30:35.908Z,58.00
2022-08-28T14:33:03.418Z,57.75
2022-08-28T14:35:30.952Z,57.96
2022-08-28T14:37:58.501Z,57.94
2022-08-28T14:40:26.167Z,57.83
2022-08-28T14:42:53.711Z,57.86
2022-08-28T14:45:21.235Z,58.21
2022-08-28T14:47:50.067Z,58.07
2022-08-28T14:50:17.632Z,58.05
2022-08-28T14:52:45.149Z,57.69
2022-08-28T14:55:20.491Z,58.13
2022-08-28T14:57:51.329Z,57.76
2022-08-28T15:00:21.597Z,57.68
2022-08-28T15:02:59.648Z,58.01
2022-08-28T15:05:29.672Z,57.53
2022-08-28T15:07:58.787Z,57.69
2022-08-28T15:10:28.051Z,57.64
2022-08-28T15:12:56.943Z,57.63
2022-08-28T15:15:28.278Z,57.59
2022-08-28T15:17:58.986Z,57.80
2022-08-28T15:20:28.503Z,57.40
2022-08-28T15:22:57.430Z,57.43
2022-08-28T15:25:29.032Z,57.77
2022-08-28T15:27:58.027Z,57.62
2022-08-28T15:30:30.565Z,57.15
2022-08-28T15:33:01.925Z,57.56
2022-08-28T15:35:31.485Z,57.51
2022-08-28T15:38:03.686Z,57.30
2022-08-28T15:40:53.711Z,57.42
2022-08-28T15:43:23.061Z,57.31
2022-08-28T15:45:53.301Z,57.23
2022-08-28T15:48:24.680Z,57.50
2022-08-28T15:51:01.292Z,57.30
2022-08-28T15:53:34.506Z,57.28
2022-08-28T15:56:04.457Z,57.18
2022-08-28T15:58:40.097Z,56.70
2022-08-28T16:01:16.669Z,56.28
2022-08-28T16:03:50.343Z,56.92
2022-08-28T16:06:29.436Z,56.88
2022-08-28T16:09:04.737Z,56.90
2022-08-28T16:12:04.452Z,56.84
2022-08-28T16:14:56.686Z,57.31
2022-08-28T16:17:24.575Z,57.25
2022-08-28T16:19:53.753Z,57.38
2022-08-28T16:22:21.479Z,57.37
2022-08-28T16:24:48.970Z,57.30
2022-08-28T16:27:20.173Z,56.83
2022-08-28T16:33:08.178Z,56.67
2022-08-28T16:38:46.267Z,56.93
2022-08-28T16:44:31.995Z,56.93
2022-08-28T16:47:11.185Z,56.81
2022-08-28T16:52:56.124Z,56.92
2022-08-28T16:55:49.089Z,56.81
2022-08-28T16:58:28.104Z,56.79
2022-08-28T17:01:00.718Z,56.79
2022-08-28T17:03:28.695Z,57.05
2022-08-28T17:05:56.848Z,57.19
2022-08-28T17:08:25.718Z,57.02
2022-08-28T17:10:53.266Z,56.92
2022-08-28T17:13:20.774Z,56.71
2022-08-28T17:15:48.378Z,57.04
2022-08-28T17:18:15.923Z,57.15
2022-08-28T17:21:01.250Z,57.11
2022-08-28T17:23:30.058Z,57.20
2022-08-28T17:25:57.710Z,56.88
2022-08-28T17:28:25.347Z,57.11
2022-08-28T17:30:52.945Z,57.17
2022-08-28T17:33:20.591Z,57.15
2022-08-28T17:35:50.296Z,57.32
2022-08-28T17:38:19.653Z,57.21
2022-08-28T17:40:48.699Z,56.94
2022-08-28T17:43:16.193Z,57.14
2022-08-28T17:45:43.973Z,56.96
2022-08-28T17:48:11.683Z,56.95
2022-08-28T17:50:39.361Z,57.05
2022-08-28T17:53:06.892Z,56.84
2022-08-28T17:55:34.410Z,57.02
2022-08-28T17:58:03.285Z,56.91
2022-08-28T18:00:31.881Z,56.97
2022-08-28T18:02:59.775Z,56.71
2022-08-28T18:05:27.556Z,56.83
2022-08-28T18:07:55.074Z,56.90
2022-08-28T18:10:22.614Z,56.84
2022-08-28T18:12:50.367Z,56.77
2022-08-28T18:15:19.848Z,56.94
2022-08-28T18:17:50.381Z,56.71
2022-08-28T18:20:18.867Z,56.67
2022-08-28T18:22:47.006Z,56.69
2022-08-28T18:25:29.778Z,56.67
2022-08-28T18:27:57.564Z,56.86
2022-08-28T18:30:27.180Z,56.89
2022-08-28T18:32:55.472Z,56.72
2022-08-28T18:35:30.347Z,56.92
2022-08-28T18:38:00.204Z,57.17
2022-08-28T18:40:28.139Z,56.91
2022-08-28T18:42:55.673Z,57.24
2022-08-28T18:45:23.202Z,57.10
2022-08-28T18:47:52.374Z,57.34
2022-08-28T18:50:22.044Z,57.62
2022-08-28T18:52:50.320Z,57.71
2022-08-28T18:55:18.915Z,57.95
2022-08-28T18:57:46.843Z,57.88
2022-08-28T19:00:16.516Z,57.78
2022-08-28T19:02:45.004Z,57.90
2022-08-28T19:05:14.883Z,57.92
2022-08-28T19:07:42.982Z,57.24
2022-08-28T19:10:31.811Z,57.34
2022-08-28T19:12:59.390Z,57.37
2022-08-28T19:15:26.930Z,57.44
2022-08-28T19:17:54.590Z,57.45
2022-08-28T19:20:27.991Z,56.96
2022-08-28T19:22:56.109Z,56.99
2022-08-28T19:25:28.181Z,56.78
2022-08-28T19:27:59.133Z,57.39
2022-08-28T19:30:31.229Z,57.24
2022-08-28T19:32:59.279Z,56.22
2022-08-28T19:35:28.292Z,57.08
2022-08-28T19:37:56.378Z,57.12
2022-08-28T19:40:32.092Z,57.03
2022-08-28T19:43:09.754Z,56.56
2022-08-28T19:45:58.957Z,56.37
2022-08-28T19:48:56.669Z,55.48
2022-08-28T19:51:42.529Z,55.46
2022-08-28T19:54:16.765Z,55.62
2022-08-28T19:57:11.175Z,55.76
2022-08-28T19:59:58.099Z,56.44
2022-08-28T20:02:29.105Z,56.60
2022-08-28T20:05:12.152Z,56.37
2022-08-28T20:07:43.913Z,56.55
2022-08-28T20:10:52.223Z,55.44
2022-08-28T20:17:16.445Z,56.38
2022-08-28T20:19:53.406Z,56.25
2022-08-28T20:22:25.912Z,56.06
2022-08-28T20:25:10.751Z,56.12
2022-08-28T20:27:59.522Z,56.60
2022-08-28T20:30:55.264Z,55.06
2022-08-28T20:34:17.056Z,55.76
2022-08-28T20:37:10.250Z,55.42
2022-08-28T20:39:45.573Z,56.15
2022-08-28T20:42:28.369Z,55.64
2022-08-28T20:45:12.534Z,55.73
2022-08-28T20:47:46.120Z,55.57
2022-08-28T20:50:18.591Z,55.86
2022-08-28T20:52:53.610Z,55.65
2022-08-28T20:55:28.966Z,55.74
2022-08-28T20:58:15.894Z,55.56
2022-08-28T21:00:59.621Z,55.79
2022-08-28T21:03:57.248Z,55.72
2022-08-28T21:06:36.722Z,56.08
2022-08-28T21:12:19.142Z,55.69
2022-08-28T21:15:02.772Z,56.08
2022-08-28T21:17:47.708Z,55.51
2022-08-28T21:20:34.392Z,55.62
2022-08-28T21:23:10.308Z,55.70
2022-08-28T21:25:50.769Z,55.96
2022-08-28T21:28:20.426Z,56.16
2022-08-28T21:31:07.982Z,55.74
2022-08-28T21:33:45.573Z,55.76
2022-08-28T21:36:20.934Z,55.16
2022-08-28T21:38:55.694Z,56.11
2022-08-28T21:41:43.298Z,55.50
2022-08-28T21:44:17.552Z,55.48
2022-08-28T21:46:46.761Z,55.95
2022-08-28T21:49:14.342Z,56.09
2022-08-28T21:51:42.176Z,55.95
2022-08-28T21:54:09.827Z,56.00
2022-08-28T21:56:37.335Z,55.91
2022-08-28T21:59:04.907Z,56.07
2022-08-28T22:01:32.652Z,55.79
2022-08-28T22:04:01.668Z,55.84
2022-08-28T22:06:29.314Z,56.18
2022-08-28T22:08:57.830Z,56.20
2022-08-28T22:11:27.206Z,56.11
2022-08-28T22:13:56.705Z,56.44
2022-08-28T22:16:25.440Z,56.47
2022-08-28T22:18:53.131Z,56.41
2022-08-28T22:21:54.456Z,56.57
2022-08-28T22:24:22.235Z,56.69
2022-08-28T22:27:00.249Z,56.61
2022-08-28T22:32:25.822Z,56.73
2022-08-28T22:35:07.408Z,56.73
2022-08-28T22:37:57.298Z,56.38
2022-08-28T22:43:40.544Z,56.88
2022-08-28T22:46:16.575Z,56.87
2022-08-28T22:48:53.801Z,56.89
2022-08-28T22:51:35.572Z,56.90
2022-08-28T22:54:10.234Z,57.00
2022-08-28T22:56:39.924Z,57.17
2022-08-28T22:59:08.715Z,57.28
2022-08-28T23:01:38.820Z,57.21
2022-08-28T23:04:08.224Z,57.46
2022-08-28T23:06:48.215Z,57.35
2022-08-28T23:09:20.621Z,57.50
2022-08-28T23:11:49.858Z,57.46
2022-08-28T23:14:19.563Z,57.55
2022-08-28T23:16:49.333Z,57.47
2022-08-28T23:19:25.772Z,57.48
2022-08-28T23:21:56.528Z,57.54
2022-08-28T23:24:31.767Z,57.49
2022-08-28T23:27:19.404Z,57.73
2022-08-28T23:29:53.340Z,57.57
2022-08-28T23:32:22.607Z,57.64
2022-08-28T23:34:51.640Z,57.98
2022-08-28T23:37:21.142Z,57.90
2022-08-28T23:40:10.304Z,57.81
2022-08-28T23:42:48.847Z,57.91
2022-08-28T23:45:23.408Z,58.11
2022-08-28T23:47:58.531Z,58.16
2022-08-28T23:50:31.539Z,58.08
2022-08-28T23:53:01.191Z,57.93
2022-08-28T23:55:33.394Z,58.23
2022-08-28T23:58:05.689Z,58.27
